sensor_id;sensor_type;location;lat;lon;timestamp;temperature;humidity
52495;DHT22;38405;53.212;5.660;2023-02-15T00:01:44;0.20;99.90
52495;DHT22;38405;53.212;5.660;2023-02-15T00:04:12;0.30;99.90
52495;DHT22;38405;53.212;5.660;2023-02-15T00:06:38;0.20;99.90
52495;DHT22;38405;53.212;5.660;2023-02-15T00:09:04;0.20;99.90
52495;DHT22;38405;53.212;5.660;2023-02-15T00:11:30;0.30;99.90
52495;DHT22;38405;53.212;5.660;2023-02-15T00:14:14;0.30;99.90
52495;DHT22;38405;53.212;5.660;2023-02-15T00:16:41;0.20;99.90
52495;DHT22;38405;53.212;5.660;2023-02-15T00:19:08;0.30;99.90
52495;DHT22;38405;53.212;5.660;2023-02-15T00:21:34;0.30;99.90
52495;DHT22;38405;53.212;5.660;2023-02-15T00:24:03;0.20;99.90
52495;DHT22;38405;53.212;5.660;2023-02-15T00:26:29;0.20;99.90
52495;DHT22;38405;53.212;5.660;2023-02-15T00:28:55;0.10;99.90
52495;DHT22;38405;53.212;5.660;2023-02-15T00:31:24;0.10;99.90
52495;DHT22;38405;53.212;5.660;2023-02-15T00:33:49;0.10;99.90
52495;DHT22;38405;53.212;5.660;2023-02-15T00:36:15;0.00;99.90
52495;DHT22;38405;53.212;5.660;2023-02-15T00:38:41;0.00;99.90
52495;DHT22;38405;53.212;5.660;2023-02-15T00:41:07;0.00;99.90
52495;DHT22;38405;53.212;5.660;2023-02-15T00:43:34;0.10;99.90
52495;DHT22;38405;53.212;5.660;2023-02-15T00:46:01;0.00;99.90
52495;DHT22;38405;53.212;5.660;2023-02-15T00:48:27;0.10;99.90
52495;DHT22;38405;53.212;5.660;2023-02-15T00:50:55;0.10;99.90
52495;DHT22;38405;53.212;5.660;2023-02-15T00:53:21;0.10;99.90
52495;DHT22;38405;53.212;5.660;2023-02-15T00:55:47;0.20;99.90
52495;DHT22;38405;53.212;5.660;2023-02-15T00:58:13;0.80;99.90
52495;DHT22;38405;53.212;5.660;2023-02-15T01:00:41;0.30;99.90
52495;DHT22;38405;53.212;5.660;2023-02-15T01:03:07;0.30;99.90
52495;DHT22;38405;53.212;5.660;2023-02-15T01:05:33;0.30;99.90
52495;DHT22;38405;53.212;5.660;2023-02-15T01:07:59;0.30;99.90
52495;DHT22;38405;53.212;5.660;2023-02-15T01:10:26;0.40;99.90
52495;DHT22;38405;53.212;5.660;2023-02-15T01:12:52;0.50;99.90
52495;DHT22;38405;53.212;5.660;2023-02-15T01:15:18;0.50;99.90
52495;DHT22;38405;53.212;5.660;2023-02-15T01:17:44;0.50;99.90
52495;DHT22;38405;53.212;5.660;2023-02-15T01:20:17;0.60;99.90
52495;DHT22;38405;53.212;5.660;2023-02-15T01:22:42;0.60;99.90
52495;DHT22;38405;53.212;5.660;2023-02-15T01:25:08;0.60;99.90
52495;DHT22;38405;53.212;5.660;2023-02-15T01:27:34;0.60;99.90
52495;DHT22;38405;53.212;5.660;2023-02-15T01:30:02;0.60;99.90
52495;DHT22;38405;53.212;5.660;2023-02-15T01:32:30;0.60;99.90
52495;DHT22;38405;53.212;5.660;2023-02-15T01:34:56;0.70;99.90
52495;DHT22;38405;53.212;5.660;2023-02-15T01:37:21;0.70;99.90
52495;DHT22;38405;53.212;5.660;2023-02-15T01:39:47;0.70;99.90
52495;DHT22;38405;53.212;5.660;2023-02-15T01:42:13;0.60;99.90
52495;DHT22;38405;53.212;5.660;2023-02-15T01:44:54;0.60;99.90
52495;DHT22;38405;53.212;5.660;2023-02-15T01:47:37;0.60;99.90
52495;DHT22;38405;53.212;5.660;2023-02-15T01:50:11;0.60;99.90
52495;DHT22;38405;53.212;5.660;2023-02-15T01:52:40;0.60;99.90
52495;DHT22;38405;53.212;5.660;2023-02-15T01:55:08;0.60;99.90
52495;DHT22;38405;53.212;5.660;2023-02-15T01:57:34;0.60;99.90
52495;DHT22;38405;53.212;5.660;2023-02-15T02:00:04;0.60;99.90
52495;DHT22;38405;53.212;5.660;2023-02-15T02:02:31;0.60;99.90
52495;DHT22;38405;53.212;5.660;2023-02-15T02:05:02;0.60;99.90
52495;DHT22;38405;53.212;5.660;2023-02-15T02:07:34;0.60;99.90
52495;DHT22;38405;53.212;5.660;2023-02-15T02:10:03;0.50;99.90
52495;DHT22;38405;53.212;5.660;2023-02-15T02:12:29;0.40;99.90
52495;DHT22;38405;53.212;5.660;2023-02-15T02:14:55;0.30;99.90
52495;DHT22;38405;53.212;5.660;2023-02-15T02:23:11;0.30;99.90
52495;DHT22;38405;53.212;5.660;2023-02-15T02:36:32;0.00;99.90
52495;DHT22;38405;53.212;5.660;2023-02-15T02:41:32;0.00;99.90
52495;DHT22;38405;53.212;5.660;2023-02-15T02:44:07;0.00;99.90
52495;DHT22;38405;53.212;5.660;2023-02-15T02:49:07;-0.10;99.90
52495;DHT22;38405;53.212;5.660;2023-02-15T02:51:32;-0.10;99.90
52495;DHT22;38405;53.212;5.660;2023-02-15T02:54:01;-0.10;99.90
52495;DHT22;38405;53.212;5.660;2023-02-15T02:56:51;-0.20;99.90
52495;DHT22;38405;53.212;5.660;2023-02-15T02:59:23;-0.20;99.90
52495;DHT22;38405;53.212;5.660;2023-02-15T03:02:43;-0.20;99.90
52495;DHT22;38405;53.212;5.660;2023-02-15T03:04:47;-0.20;99.90
52495;DHT22;38405;53.212;5.660;2023-02-15T03:07:20;-0.20;99.90
52495;DHT22;38405;53.212;5.660;2023-02-15T03:09:52;-0.30;99.90
52495;DHT22;38405;53.212;5.660;2023-02-15T03:14:58;-0.30;99.90
52495;DHT22;38405;53.212;5.660;2023-02-15T03:17:27;-0.30;99.90
52495;DHT22;38405;53.212;5.660;2023-02-15T03:19:59;-0.30;99.90
52495;DHT22;38405;53.212;5.660;2023-02-15T03:22:56;-0.40;99.90
52495;DHT22;38405;53.212;5.660;2023-02-15T03:25:26;-0.40;99.90
52495;DHT22;38405;53.212;5.660;2023-02-15T03:27:57;-0.40;99.90
52495;DHT22;38405;53.212;5.660;2023-02-15T03:30:25;-0.50;99.90
52495;DHT22;38405;53.212;5.660;2023-02-15T03:32:53;-0.50;99.90
52495;DHT22;38405;53.212;5.660;2023-02-15T03:35:23;-0.50;99.90
52495;DHT22;38405;53.212;5.660;2023-02-15T03:38:09;-0.50;99.90
52495;DHT22;38405;53.212;5.660;2023-02-15T03:40:38;-0.50;99.90
52495;DHT22;38405;53.212;5.660;2023-02-15T03:43:32;-0.50;99.90
52495;DHT22;38405;53.212;5.660;2023-02-15T03:46:06;-0.50;99.90
52495;DHT22;38405;53.212;5.660;2023-02-15T03:48:38;0.00;99.90
52495;DHT22;38405;53.212;5.660;2023-02-15T03:51:10;-0.60;99.90
52495;DHT22;38405;53.212;5.660;2023-02-15T03:53:57;0.60;99.90
52495;DHT22;38405;53.212;5.660;2023-02-15T03:56:24;-0.70;99.90
52495;DHT22;38405;53.212;5.660;2023-02-15T03:58:50;-0.70;99.90
52495;DHT22;38405;53.212;5.660;2023-02-15T04:01:38;-0.80;99.90
52495;DHT22;38405;53.212;5.660;2023-02-15T04:04:41;-0.90;99.90
52495;DHT22;38405;53.212;5.660;2023-02-15T04:07:09;-0.90;99.90
52495;DHT22;38405;53.212;5.660;2023-02-15T04:09:34;-0.90;99.90
52495;DHT22;38405;53.212;5.660;2023-02-15T04:12:19;-1.00;99.90
52495;DHT22;38405;53.212;5.660;2023-02-15T04:14:45;-1.00;99.90
52495;DHT22;38405;53.212;5.660;2023-02-15T04:17:29;-1.00;99.90
52495;DHT22;38405;53.212;5.660;2023-02-15T04:19:55;-1.10;99.90
52495;DHT22;38405;53.212;5.660;2023-02-15T04:22:39;-1.60;99.90
52495;DHT22;38405;53.212;5.660;2023-02-15T04:25:23;-1.10;99.90
52495;DHT22;38405;53.212;5.660;2023-02-15T04:27:51;-1.20;99.90
52495;DHT22;38405;53.212;5.660;2023-02-15T04:30:19;0.00;99.90
52495;DHT22;38405;53.212;5.660;2023-02-15T04:32:45;-1.30;99.90
52495;DHT22;38405;53.212;5.660;2023-02-15T04:35:11;-1.30;99.90
52495;DHT22;38405;53.212;5.660;2023-02-15T04:37:38;-0.70;99.90
52495;DHT22;38405;53.212;5.660;2023-02-15T04:40:05;-1.30;99.90
52495;DHT22;38405;53.212;5.660;2023-02-15T04:42:32;-1.30;99.90
52495;DHT22;38405;53.212;5.660;2023-02-15T04:44:57;-1.30;99.90
52495;DHT22;38405;53.212;5.660;2023-02-15T04:47:23;-1.30;99.90
52495;DHT22;38405;53.212;5.660;2023-02-15T04:49:49;-1.40;99.90
52495;DHT22;38405;53.212;5.660;2023-02-15T04:52:15;-1.40;99.90
52495;DHT22;38405;53.212;5.660;2023-02-15T04:54:42;-1.40;99.90
52495;DHT22;38405;53.212;5.660;2023-02-15T04:57:08;-1.40;99.90
52495;DHT22;38405;53.212;5.660;2023-02-15T04:59:33;-1.40;99.90
52495;DHT22;38405;53.212;5.660;2023-02-15T05:01:59;-1.50;99.90
52495;DHT22;38405;53.212;5.660;2023-02-15T05:04:25;-1.50;99.90
52495;DHT22;38405;53.212;5.660;2023-02-15T05:06:50;-1.50;99.90
52495;DHT22;38405;53.212;5.660;2023-02-15T05:09:16;-1.50;99.90
52495;DHT22;38405;53.212;5.660;2023-02-15T05:11:42;-1.50;99.90
52495;DHT22;38405;53.212;5.660;2023-02-15T05:14:07;-1.60;99.90
52495;DHT22;38405;53.212;5.660;2023-02-15T05:16:33;-1.50;99.90
52495;DHT22;38405;53.212;5.660;2023-02-15T05:18:59;-1.50;99.90
52495;DHT22;38405;53.212;5.660;2023-02-15T05:21:25;-1.50;99.90
52495;DHT22;38405;53.212;5.660;2023-02-15T05:23:51;-1.50;99.90
52495;DHT22;38405;53.212;5.660;2023-02-15T05:26:21;-1.50;99.90
52495;DHT22;38405;53.212;5.660;2023-02-15T05:29:06;-1.50;99.90
52495;DHT22;38405;53.212;5.660;2023-02-15T05:31:32;-1.50;99.90
52495;DHT22;38405;53.212;5.660;2023-02-15T05:33:58;-1.50;99.90
52495;DHT22;38405;53.212;5.660;2023-02-15T05:36:24;-1.50;99.90
52495;DHT22;38405;53.212;5.660;2023-02-15T05:38:50;-1.50;99.90
52495;DHT22;38405;53.212;5.660;2023-02-15T05:41:16;-1.50;99.90
52495;DHT22;38405;53.212;5.660;2023-02-15T05:43:42;-1.50;99.90
52495;DHT22;38405;53.212;5.660;2023-02-15T05:46:08;-1.50;99.90
52495;DHT22;38405;53.212;5.660;2023-02-15T05:48:34;-1.50;99.90
52495;DHT22;38405;53.212;5.660;2023-02-15T05:51:02;-1.50;99.90
52495;DHT22;38405;53.212;5.660;2023-02-15T05:53:29;-1.50;99.90
52495;DHT22;38405;53.212;5.660;2023-02-15T05:55:55;-1.50;99.90
52495;DHT22;38405;53.212;5.660;2023-02-15T05:58:28;-1.40;99.90
52495;DHT22;38405;53.212;5.660;2023-02-15T06:00:54;-1.40;99.90
52495;DHT22;38405;53.212;5.660;2023-02-15T06:03:20;-1.40;99.90
52495;DHT22;38405;53.212;5.660;2023-02-15T06:05:46;-1.40;99.90
52495;DHT22;38405;53.212;5.660;2023-02-15T06:08:11;-1.30;99.90
52495;DHT22;38405;53.212;5.660;2023-02-15T06:10:37;-1.30;99.90
52495;DHT22;38405;53.212;5.660;2023-02-15T06:13:03;-1.30;99.90
52495;DHT22;38405;53.212;5.660;2023-02-15T06:15:28;-1.30;99.90
52495;DHT22;38405;53.212;5.660;2023-02-15T06:17:54;-1.30;99.90
52495;DHT22;38405;53.212;5.660;2023-02-15T06:20:19;-1.40;99.90
52495;DHT22;38405;53.212;5.660;2023-02-15T06:22:46;-1.40;99.90
52495;DHT22;38405;53.212;5.660;2023-02-15T06:25:11;-1.40;99.90
52495;DHT22;38405;53.212;5.660;2023-02-15T06:27:37;-1.40;99.90
52495;DHT22;38405;53.212;5.660;2023-02-15T06:30:05;-1.40;99.90
52495;DHT22;38405;53.212;5.660;2023-02-15T06:32:31;-1.40;99.90
52495;DHT22;38405;53.212;5.660;2023-02-15T06:34:57;-1.50;99.90
52495;DHT22;38405;53.212;5.660;2023-02-15T06:37:23;-1.50;99.90
52495;DHT22;38405;53.212;5.660;2023-02-15T06:39:48;-1.40;99.90
52495;DHT22;38405;53.212;5.660;2023-02-15T06:42:14;-1.40;99.90
52495;DHT22;38405;53.212;5.660;2023-02-15T06:44:39;-1.40;99.90
52495;DHT22;38405;53.212;5.660;2023-02-15T06:47:05;-1.40;99.90
52495;DHT22;38405;53.212;5.660;2023-02-15T06:49:31;-1.30;99.90
52495;DHT22;38405;53.212;5.660;2023-02-15T06:51:56;-1.20;99.90
52495;DHT22;38405;53.212;5.660;2023-02-15T06:54:22;-1.20;99.90
52495;DHT22;38405;53.212;5.660;2023-02-15T06:56:47;-1.20;99.90
52495;DHT22;38405;53.212;5.660;2023-02-15T06:59:13;-1.10;99.90
52495;DHT22;38405;53.212;5.660;2023-02-15T07:01:39;-1.10;99.90
52495;DHT22;38405;53.212;5.660;2023-02-15T07:04:04;-1.10;99.90
52495;DHT22;38405;53.212;5.660;2023-02-15T07:06:33;-1.10;99.90
52495;DHT22;38405;53.212;5.660;2023-02-15T07:08:59;-1.10;99.90
52495;DHT22;38405;53.212;5.660;2023-02-15T07:11:25;-1.10;99.90
52495;DHT22;38405;53.212;5.660;2023-02-15T07:14:26;-1.00;99.90
52495;DHT22;38405;53.212;5.660;2023-02-15T07:16:51;-1.00;99.90
52495;DHT22;38405;53.212;5.660;2023-02-15T07:19:17;-1.00;99.90
52495;DHT22;38405;53.212;5.660;2023-02-15T07:21:43;-1.00;99.90
52495;DHT22;38405;53.212;5.660;2023-02-15T07:24:10;-1.00;99.90
52495;DHT22;38405;53.212;5.660;2023-02-15T07:26:36;-1.00;99.90
52495;DHT22;38405;53.212;5.660;2023-02-15T07:29:02;-0.90;99.90
52495;DHT22;38405;53.212;5.660;2023-02-15T07:31:28;-0.80;99.90
52495;DHT22;38405;53.212;5.660;2023-02-15T07:33:53;-0.80;99.90
52495;DHT22;38405;53.212;5.660;2023-02-15T07:36:19;-0.80;99.90
52495;DHT22;38405;53.212;5.660;2023-02-15T07:38:45;-0.80;99.90
52495;DHT22;38405;53.212;5.660;2023-02-15T07:41:12;-0.70;99.90
52495;DHT22;38405;53.212;5.660;2023-02-15T07:43:40;-0.70;99.90
52495;DHT22;38405;53.212;5.660;2023-02-15T07:46:09;-0.60;99.90
52495;DHT22;38405;53.212;5.660;2023-02-15T07:48:37;-0.60;99.90
52495;DHT22;38405;53.212;5.660;2023-02-15T07:51:06;-0.50;99.90
52495;DHT22;38405;53.212;5.660;2023-02-15T07:53:33;-0.60;99.90
52495;DHT22;38405;53.212;5.660;2023-02-15T07:55:59;-0.50;99.90
52495;DHT22;38405;53.212;5.660;2023-02-15T07:58:25;-0.40;99.90
52495;DHT22;38405;53.212;5.660;2023-02-15T08:01:11;-0.40;99.90
52495;DHT22;38405;53.212;5.660;2023-02-15T08:03:37;-0.30;99.90
52495;DHT22;38405;53.212;5.660;2023-02-15T08:06:02;-0.20;99.90
52495;DHT22;38405;53.212;5.660;2023-02-15T08:08:28;-0.10;99.90
52495;DHT22;38405;53.212;5.660;2023-02-15T08:14:06;0.00;99.90
52495;DHT22;38405;53.212;5.660;2023-02-15T08:16:42;0.10;99.90
52495;DHT22;38405;53.212;5.660;2023-02-15T08:19:17;0.20;99.90
52495;DHT22;38405;53.212;5.660;2023-02-15T08:21:45;0.40;99.90
52495;DHT22;38405;53.212;5.660;2023-02-15T08:24:13;0.50;99.90
52495;DHT22;38405;53.212;5.660;2023-02-15T08:26:39;0.70;99.90
52495;DHT22;38405;53.212;5.660;2023-02-15T08:29:05;0.80;99.90
52495;DHT22;38405;53.212;5.660;2023-02-15T08:31:32;1.00;99.90
52495;DHT22;38405;53.212;5.660;2023-02-15T08:33:59;1.10;99.90
52495;DHT22;38405;53.212;5.660;2023-02-15T08:36:27;1.20;99.90
52495;DHT22;38405;53.212;5.660;2023-02-15T08:38:55;1.30;99.90
52495;DHT22;38405;53.212;5.660;2023-02-15T08:41:23;1.40;99.90
52495;DHT22;38405;53.212;5.660;2023-02-15T08:43:52;1.70;99.90
52495;DHT22;38405;53.212;5.660;2023-02-15T08:46:19;1.90;99.90
52495;DHT22;38405;53.212;5.660;2023-02-15T08:48:45;2.20;99.90
52495;DHT22;38405;53.212;5.660;2023-02-15T08:51:15;2.30;99.90
52495;DHT22;38405;53.212;5.660;2023-02-15T08:53:45;2.60;99.90
52495;DHT22;38405;53.212;5.660;2023-02-15T08:56:14;2.60;99.90
52495;DHT22;38405;53.212;5.660;2023-02-15T08:58:40;2.70;99.90
52495;DHT22;38405;53.212;5.660;2023-02-15T09:01:13;2.80;99.90
52495;DHT22;38405;53.212;5.660;2023-02-15T09:03:39;2.80;99.90
52495;DHT22;38405;53.212;5.660;2023-02-15T09:06:08;3.00;99.90
52495;DHT22;38405;53.212;5.660;2023-02-15T09:08:33;3.20;99.90
52495;DHT22;38405;53.212;5.660;2023-02-15T09:11:35;3.30;99.90
52495;DHT22;38405;53.212;5.660;2023-02-15T09:14:12;3.40;99.90
52495;DHT22;38405;53.212;5.660;2023-02-15T09:16:40;3.60;99.90
52495;DHT22;38405;53.212;5.660;2023-02-15T09:19:06;3.80;99.90
52495;DHT22;38405;53.212;5.660;2023-02-15T09:21:35;4.00;99.90
52495;DHT22;38405;53.212;5.660;2023-02-15T09:24:04;4.20;99.90
52495;DHT22;38405;53.212;5.660;2023-02-15T09:26:32;4.40;99.90
52495;DHT22;38405;53.212;5.660;2023-02-15T09:28:59;4.60;99.90
52495;DHT22;38405;53.212;5.660;2023-02-15T09:31:28;4.90;99.90
52495;DHT22;38405;53.212;5.660;2023-02-15T09:33:54;5.20;99.90
52495;DHT22;38405;53.212;5.660;2023-02-15T09:36:25;5.40;99.90
52495;DHT22;38405;53.212;5.660;2023-02-15T09:39:12;5.70;99.90
52495;DHT22;38405;53.212;5.660;2023-02-15T09:47:18;6.20;99.90
52495;DHT22;38405;53.212;5.660;2023-02-15T09:55:16;6.70;99.90
52495;DHT22;38405;53.212;5.660;2023-02-15T10:00:23;7.30;99.90
52495;DHT22;38405;53.212;5.660;2023-02-15T10:02:56;7.60;99.90
52495;DHT22;38405;53.212;5.660;2023-02-15T10:05:58;7.70;99.90
52495;DHT22;38405;53.212;5.660;2023-02-15T10:11:14;7.90;99.90
52495;DHT22;38405;53.212;5.660;2023-02-15T10:25:19;8.70;99.90
52495;DHT22;38405;53.212;5.660;2023-02-15T10:27:48;8.80;99.90
52495;DHT22;38405;53.212;5.660;2023-02-15T10:33:03;8.90;99.90
52495;DHT22;38405;53.212;5.660;2023-02-15T10:38:36;9.00;99.90
52495;DHT22;38405;53.212;5.660;2023-02-15T10:52:08;9.20;99.90
52495;DHT22;38405;53.212;5.660;2023-02-15T10:54:44;9.30;99.90
52495;DHT22;38405;53.212;5.660;2023-02-15T11:02:44;9.20;99.90
52495;DHT22;38405;53.212;5.660;2023-02-15T11:05:33;9.30;99.90
52495;DHT22;38405;53.212;5.660;2023-02-15T11:08:03;9.30;99.90
52495;DHT22;38405;53.212;5.660;2023-02-15T11:10:51;9.40;99.90
52495;DHT22;38405;53.212;5.660;2023-02-15T11:13:19;9.60;99.90
52495;DHT22;38405;53.212;5.660;2023-02-15T11:15:51;9.60;99.90
52495;DHT22;38405;53.212;5.660;2023-02-15T11:21:01;9.70;99.90
52495;DHT22;38405;53.212;5.660;2023-02-15T11:23:27;9.70;99.90
52495;DHT22;38405;53.212;5.660;2023-02-15T11:25:59;9.90;99.90
52495;DHT22;38405;53.212;5.660;2023-02-15T11:28:34;10.10;99.90
52495;DHT22;38405;53.212;5.660;2023-02-15T11:31:16;10.30;99.90
52495;DHT22;38405;53.212;5.660;2023-02-15T11:33:53;10.40;99.90
52495;DHT22;38405;53.212;5.660;2023-02-15T11:36:26;10.60;99.90
52495;DHT22;38405;53.212;5.660;2023-02-15T11:39:01;11.00;99.90
52495;DHT22;38405;53.212;5.660;2023-02-15T11:41:31;11.10;99.90
52495;DHT22;38405;53.212;5.660;2023-02-15T11:44:18;11.30;99.90
52495;DHT22;38405;53.212;5.660;2023-02-15T11:46:46;11.50;99.90
52495;DHT22;38405;53.212;5.660;2023-02-15T11:49:27;11.40;99.90
52495;DHT22;38405;53.212;5.660;2023-02-15T11:51:56;11.50;99.90
52495;DHT22;38405;53.212;5.660;2023-02-15T11:54:27;11.50;99.90
52495;DHT22;38405;53.212;5.660;2023-02-15T11:56:56;11.50;99.90
52495;DHT22;38405;53.212;5.660;2023-02-15T11:59:34;11.30;99.90
52495;DHT22;38405;53.212;5.660;2023-02-15T12:02:14;11.40;99.90
52495;DHT22;38405;53.212;5.660;2023-02-15T12:04:43;11.40;99.90
52495;DHT22;38405;53.212;5.660;2023-02-15T12:07:34;11.10;99.90
52495;DHT22;38405;53.212;5.660;2023-02-15T12:10:24;11.10;99.90
52495;DHT22;38405;53.212;5.660;2023-02-15T12:13:16;10.90;99.90
52495;DHT22;38405;53.212;5.660;2023-02-15T12:15:50;10.90;99.90
52495;DHT22;38405;53.212;5.660;2023-02-15T12:18:21;10.90;99.90
52495;DHT22;38405;53.212;5.660;2023-02-15T12:20:50;10.90;99.90
52495;DHT22;38405;53.212;5.660;2023-02-15T12:23:17;10.90;99.90
52495;DHT22;38405;53.212;5.660;2023-02-15T12:28:41;11.10;99.90
52495;DHT22;38405;53.212;5.660;2023-02-15T12:31:23;11.20;99.90
52495;DHT22;38405;53.212;5.660;2023-02-15T12:33:52;11.30;99.90
52495;DHT22;38405;53.212;5.660;2023-02-15T12:36:30;11.30;99.90
52495;DHT22;38405;53.212;5.660;2023-02-15T12:41:38;11.20;99.90
52495;DHT22;38405;53.212;5.660;2023-02-15T12:44:33;11.30;99.90
52495;DHT22;38405;53.212;5.660;2023-02-15T12:49:37;11.30;99.90
52495;DHT22;38405;53.212;5.660;2023-02-15T12:54:46;11.00;99.90
52495;DHT22;38405;53.212;5.660;2023-02-15T12:57:33;10.90;99.90
52495;DHT22;38405;53.212;5.660;2023-02-15T13:00:05;10.80;99.90
52495;DHT22;38405;53.212;5.660;2023-02-15T13:02:41;10.70;99.90
52495;DHT22;38405;53.212;5.660;2023-02-15T13:08:25;10.50;99.90
52495;DHT22;38405;53.212;5.660;2023-02-15T13:13:24;10.30;99.90
52495;DHT22;38405;53.212;5.660;2023-02-15T13:15:52;10.30;99.90
52495;DHT22;38405;53.212;5.660;2023-02-15T13:18:38;10.30;99.90
52495;DHT22;38405;53.212;5.660;2023-02-15T13:21:10;10.20;99.90
52495;DHT22;38405;53.212;5.660;2023-02-15T13:23:37;10.20;99.90
52495;DHT22;38405;53.212;5.660;2023-02-15T13:26:09;10.20;99.90
52495;DHT22;38405;53.212;5.660;2023-02-15T13:28:42;10.20;99.90
52495;DHT22;38405;53.212;5.660;2023-02-15T13:31:15;10.20;99.90
52495;DHT22;38405;53.212;5.660;2023-02-15T13:33:51;10.20;99.90
52495;DHT22;38405;53.212;5.660;2023-02-15T13:36:29;10.20;99.90
52495;DHT22;38405;53.212;5.660;2023-02-15T13:41:48;10.00;99.90
52495;DHT22;38405;53.212;5.660;2023-02-15T13:47:06;9.80;99.90
52495;DHT22;38405;53.212;5.660;2023-02-15T13:52:25;9.70;99.90
52495;DHT22;38405;53.212;5.660;2023-02-15T13:55:39;9.60;99.90
52495;DHT22;38405;53.212;5.660;2023-02-15T14:01:22;9.50;99.90
52495;DHT22;38405;53.212;5.660;2023-02-15T14:07:20;9.40;99.90
52495;DHT22;38405;53.212;5.660;2023-02-15T14:15:34;9.30;99.90
52495;DHT22;38405;53.212;5.660;2023-02-15T14:21:10;9.30;99.90
52495;DHT22;38405;53.212;5.660;2023-02-15T14:31:28;9.40;99.90
52495;DHT22;38405;53.212;5.660;2023-02-15T14:33:57;9.40;99.90
52495;DHT22;38405;53.212;5.660;2023-02-15T14:36:23;9.50;99.90
52495;DHT22;38405;53.212;5.660;2023-02-15T14:41:59;9.50;99.90
52495;DHT22;38405;53.212;5.660;2023-02-15T14:44:41;9.40;99.90
52495;DHT22;38405;53.212;5.660;2023-02-15T14:47:18;9.40;99.90
52495;DHT22;38405;53.212;5.660;2023-02-15T14:49:47;9.40;99.90
52495;DHT22;38405;53.212;5.660;2023-02-15T14:52:13;9.30;99.90
52495;DHT22;38405;53.212;5.660;2023-02-15T14:59:50;9.20;99.90
52495;DHT22;38405;53.212;5.660;2023-02-15T15:02:48;9.20;99.90
52495;DHT22;38405;53.212;5.660;2023-02-15T15:07:48;9.10;99.90
52495;DHT22;38405;53.212;5.660;2023-02-15T15:12:56;8.90;99.90
52495;DHT22;38405;53.212;5.660;2023-02-15T15:26:20;8.70;99.90
52495;DHT22;38405;53.212;5.660;2023-02-15T15:42:51;8.10;99.90
52495;DHT22;38405;53.212;5.660;2023-02-15T15:45:39;8.00;99.90
52495;DHT22;38405;53.212;5.660;2023-02-15T15:51:04;7.80;99.90
52495;DHT22;38405;53.212;5.660;2023-02-15T15:53:37;7.70;99.90
52495;DHT22;38405;53.212;5.660;2023-02-15T15:56:07;7.70;99.90
52495;DHT22;38405;53.212;5.660;2023-02-15T15:58:34;7.90;99.90
52495;DHT22;38405;53.212;5.660;2023-02-15T16:01:09;7.60;99.90
52495;DHT22;38405;53.212;5.660;2023-02-15T16:03:36;7.50;99.90
52495;DHT22;38405;53.212;5.660;2023-02-15T16:06:02;7.50;99.90
52495;DHT22;38405;53.212;5.660;2023-02-15T16:08:35;7.40;99.90
52495;DHT22;38405;53.212;5.660;2023-02-15T16:11:23;7.30;99.90
52495;DHT22;38405;53.212;5.660;2023-02-15T16:13:49;7.30;99.90
52495;DHT22;38405;53.212;5.660;2023-02-15T16:16:26;7.20;99.90
52495;DHT22;38405;53.212;5.660;2023-02-15T16:18:54;7.20;99.90
52495;DHT22;38405;53.212;5.660;2023-02-15T16:21:26;7.10;99.90
52495;DHT22;38405;53.212;5.660;2023-02-15T16:24:08;7.00;99.90
52495;DHT22;38405;53.212;5.660;2023-02-15T16:26:52;6.90;99.90
52495;DHT22;38405;53.212;5.660;2023-02-15T16:29:30;6.90;99.90
52495;DHT22;38405;53.212;5.660;2023-02-15T16:31:59;6.80;99.90
52495;DHT22;38405;53.212;5.660;2023-02-15T16:34:25;6.80;99.90
52495;DHT22;38405;53.212;5.660;2023-02-15T16:37:12;6.90;99.90
52495;DHT22;38405;53.212;5.660;2023-02-15T16:39:41;6.60;99.90
52495;DHT22;38405;53.212;5.660;2023-02-15T16:42:08;7.20;99.90
52495;DHT22;38405;53.212;5.660;2023-02-15T16:44:34;6.60;99.90
52495;DHT22;38405;53.212;5.660;2023-02-15T16:47:00;6.50;99.90
52495;DHT22;38405;53.212;5.660;2023-02-15T16:49:28;6.50;99.90
52495;DHT22;38405;53.212;5.660;2023-02-15T16:52:04;6.40;99.90
52495;DHT22;38405;53.212;5.660;2023-02-15T16:54:32;6.40;99.90
52495;DHT22;38405;53.212;5.660;2023-02-15T16:56:58;6.40;99.90
52495;DHT22;38405;53.212;5.660;2023-02-15T16:59:50;6.40;99.90
52495;DHT22;38405;53.212;5.660;2023-02-15T17:02:24;6.30;99.90
52495;DHT22;38405;53.212;5.660;2023-02-15T17:07:30;6.30;99.90
52495;DHT22;38405;53.212;5.660;2023-02-15T17:09:59;6.30;99.90
52495;DHT22;38405;53.212;5.660;2023-02-15T17:12:47;6.30;99.90
52495;DHT22;38405;53.212;5.660;2023-02-15T17:15:34;6.30;99.90
52495;DHT22;38405;53.212;5.660;2023-02-15T17:18:21;6.30;99.90
52495;DHT22;38405;53.212;5.660;2023-02-15T17:20:49;6.30;99.90
52495;DHT22;38405;53.212;5.660;2023-02-15T17:25:47;6.30;99.90
52495;DHT22;38405;53.212;5.660;2023-02-15T17:28:31;6.30;99.90
52495;DHT22;38405;53.212;5.660;2023-02-15T17:31:02;6.50;99.90
52495;DHT22;38405;53.212;5.660;2023-02-15T17:39:06;6.30;99.90
52495;DHT22;38405;53.212;5.660;2023-02-15T17:41:33;6.30;99.90
52495;DHT22;38405;53.212;5.660;2023-02-15T17:44:00;5.90;99.90
52495;DHT22;38405;53.212;5.660;2023-02-15T17:46:32;6.30;99.90
52495;DHT22;38405;53.212;5.660;2023-02-15T17:49:01;6.20;99.90
52495;DHT22;38405;53.212;5.660;2023-02-15T17:51:27;6.30;99.90
52495;DHT22;38405;53.212;5.660;2023-02-15T17:53:53;6.30;99.90
52495;DHT22;38405;53.212;5.660;2023-02-15T17:56:38;6.30;99.90
52495;DHT22;38405;53.212;5.660;2023-02-15T17:59:06;6.10;99.90
52495;DHT22;38405;53.212;5.660;2023-02-15T18:01:42;6.00;99.90
52495;DHT22;38405;53.212;5.660;2023-02-15T18:04:27;6.00;99.90
52495;DHT22;38405;53.212;5.660;2023-02-15T18:07:12;6.00;99.90
52495;DHT22;38405;53.212;5.660;2023-02-15T18:09:56;6.20;99.90
52495;DHT22;38405;53.212;5.660;2023-02-15T18:12:40;5.90;99.90
52495;DHT22;38405;53.212;5.660;2023-02-15T18:15:07;5.80;99.90
52495;DHT22;38405;53.212;5.660;2023-02-15T18:17:38;5.80;99.90
52495;DHT22;38405;53.212;5.660;2023-02-15T18:20:32;5.80;99.90
52495;DHT22;38405;53.212;5.660;2023-02-15T18:22:59;5.80;99.90
52495;DHT22;38405;53.212;5.660;2023-02-15T18:25:26;5.80;99.90
52495;DHT22;38405;53.212;5.660;2023-02-15T18:27:52;5.90;99.90
52495;DHT22;38405;53.212;5.660;2023-02-15T18:30:20;5.90;99.90
52495;DHT22;38405;53.212;5.660;2023-02-15T18:32:47;6.00;99.90
52495;DHT22;38405;53.212;5.660;2023-02-15T18:35:18;6.00;99.90
52495;DHT22;38405;53.212;5.660;2023-02-15T18:37:46;6.10;99.90
52495;DHT22;38405;53.212;5.660;2023-02-15T18:40:17;6.20;99.90
52495;DHT22;38405;53.212;5.660;2023-02-15T18:42:44;6.20;99.90
52495;DHT22;38405;53.212;5.660;2023-02-15T18:45:16;6.30;99.90
52495;DHT22;38405;53.212;5.660;2023-02-15T18:47:51;6.30;99.90
52495;DHT22;38405;53.212;5.660;2023-02-15T18:50:20;6.30;99.90
52495;DHT22;38405;53.212;5.660;2023-02-15T18:52:50;6.30;99.90
52495;DHT22;38405;53.212;5.660;2023-02-15T18:55:26;6.30;99.90
52495;DHT22;38405;53.212;5.660;2023-02-15T18:57:54;6.30;99.90
52495;DHT22;38405;53.212;5.660;2023-02-15T19:00:26;6.30;99.90
52495;DHT22;38405;53.212;5.660;2023-02-15T19:02:57;6.30;99.90
52495;DHT22;38405;53.212;5.660;2023-02-15T19:05:25;6.30;99.90